Montandon, PA

08:46 AM EST del 26 novembre 2014 (GMT -0500)
Muir Army Air Field | Change Station
CLOSE
Current Station
Aeroporto
Location: Fort Indiantown Gap,
Altitudine: 489 ft
Stazioni meteo nelle vicinanze
Avvisi attivi: Winter Storm Warning

Alt. 489 ft 40.43 °N, 76.57 °W | Updated 48 minutes ago

Neve
Neve
37 °F
Sembra 33 °F
N
6
Vento Variabile Vento da NNE

Oggi
Massima -- | Minima -- °F
--% Possibilità di precip.
Ieri
Massima -- | Minima -- °F
Precip. -- in
7:07 AM 4:41 PM
Luna crescente, 20% visible
Pressione 30.12 in
Visibilità 9.0 miglia
Nuvole Coperto 1800 ft
Raffreddamento del vento 33 °F
Punto di rugiada 34 °F
Umidità 87%
Piovosità 0.03 in
Spessore del manto nevoso Non disponibile.
Raggi UV 0 fuori da 12
Polline .10 fuori da 12
Qualità dell'aria Non disponibile.
Flu Activity Non disponibile.
METAR KMUI 261258Z AUTO 02005KT 9SM -RA OVC018 03/01 A3010 RMK AO2 SLP200 P0003 T00290010 $

More Conditions Fewer Conditions

Pressione 30.12 in
Visibilità 9.0 miglia
Nuvole Coperto 1800 ft
Raffreddamento del vento 33 °F
Punto di rugiada 34 °F
Umidità 87%
Piovosità 0.03 in
Spessore del manto nevoso Non disponibile.
Raggi UV 0 fuori da 12
Polline .10 fuori da 12
Qualità dell'aria Non disponibile.
Flu Activity Non disponibile.
METAR KMUI 261258Z AUTO 02005KT 9SM -RA OVC018 03/01 A3010 RMK AO2 SLP200 P0003 T00290010 $

More Conditions Fewer Conditions

Nowcast | as of 8:31 am EST on November 26, 2014

Snow will continue across the region this morning. Snow will be heavy at times. Roads will quickly become snow covered and slick...so use extra caution if traveling this morning.

×

10-Day Weather Forecast

Almanac

Astronomia

Nov. 26, 2014 Alba Tramonto
Ora attuale
Crepuscolo civile
Crepuscolo nautico
Crepuscolo astronomico
Luna
Estensione della luce visibile
Lunghezza del giorno
Tomorrow will be .
, % of the Moon is Illuminated

Gli estremi di oggi

State Highs State Lows

Community

WunderPhotos

Upload Photos

1,773,738 foto caricate!

WunderBlogs® & News

Nearby

Qualità dell'aria

  Qualità dell'aria Indice AQ Inquinante
Not available.

Profondità neve

Stazione Profondità Altitudine

Attività sismica

Città  Distanza Mag. Data & Ora
Minimo Magnitudo Mostrato è 2.5.

Temperature delle acque costiere

Località Temperatura

Stazioni meteo nelle vicinanze